Time;durP1;ratioP1;P1;durP2;ratioP2;P2;SDS_P1;SDS_P2;PMS_P1;PMS_P2;Temp;Humidity;BMP_temperature;BMP_pressure;BME280_temperature;BME280_humidity;BME280_pressure;Samples;Min_cycle;Max_cycle;Signal;HPM_P1;HPM_P2
2023/09/29 00:01:35;;;;;;;9.43;4.65;;;;;;;13.61;100.00;97529.16;5003886;28;20038;-63
2023/09/29 00:04:04;;;;;;;7.78;4.05;;;;;;;13.58;100.00;97527.81;5006742;28;20057;-63
2023/09/29 00:06:34;;;;;;;8.63;4.30;;;;;;;13.64;100.00;97529.44;5005802;28;20038;-64
2023/09/29 00:09:12;;;;;;;11.07;4.63;;;;;;;13.78;100.00;97523.47;5007309;28;20040;-63
2023/09/29 00:11:39;;;;;;;7.05;4.10;;;;;;;13.85;100.00;97515.88;5004528;28;20100;-63
2023/09/29 00:14:06;;;;;;;8.02;4.13;;;;;;;14.02;100.00;97521.09;5007135;28;20050;-63
2023/09/29 00:16:32;;;;;;;6.28;3.88;;;;;;;14.19;100.00;97522.72;5006222;28;20524;-63
2023/09/29 00:18:59;;;;;;;10.52;4.20;;;;;;;14.31;100.00;97514.28;5006125;28;20038;-63
2023/09/29 00:21:26;;;;;;;11.15;4.13;;;;;;;14.52;100.00;97517.78;5006206;28;20064;-63
2023/09/29 00:23:52;;;;;;;5.95;3.85;;;;;;;14.63;100.00;97521.31;5006252;28;20045;-63
2023/09/29 00:26:20;;;;;;;6.07;3.75;;;;;;;14.68;100.00;97520.50;5006712;28;20092;-63
2023/09/29 00:28:48;;;;;;;6.85;3.58;;;;;;;14.72;100.00;97520.75;4993262;28;20132;-63
2023/09/29 00:31:17;;;;;;;7.03;3.63;;;;;;;14.65;100.00;97523.78;5006554;28;20038;-64
2023/09/29 00:33:44;;;;;;;7.32;3.92;;;;;;;14.63;100.00;97518.59;5005718;28;20038;-63
2023/09/29 00:36:11;;;;;;;7.45;4.05;;;;;;;14.58;100.00;97518.59;5006476;28;20041;-63
2023/09/29 00:38:38;;;;;;;7.72;4.18;;;;;;;14.44;100.00;97515.63;5006083;28;20147;-63
2023/09/29 00:41:05;;;;;;;7.80;4.20;;;;;;;14.38;100.00;97511.28;5008752;28;20069;-63
2023/09/29 00:43:33;;;;;;;5.68;3.90;;;;;;;14.36;100.00;97516.16;5000032;28;20873;-63
2023/09/29 00:46:00;;;;;;;6.32;4.00;;;;;;;14.29;100.00;97513.72;4991751;28;20042;-63
2023/09/29 00:48:30;;;;;;;8.38;4.20;;;;;;;14.26;100.00;97514.28;4987125;28;20042;-63
2023/09/29 00:50:56;;;;;;;8.75;4.07;;;;;;;14.17;100.00;97512.13;5005973;28;20067;-64
2023/09/29 00:53:23;;;;;;;7.03;4.22;;;;;;;14.03;100.00;97506.38;5005797;28;20038;-63
2023/09/29 00:55:50;;;;;;;7.05;4.05;;;;;;;13.92;100.00;97507.44;5007741;28;20120;-63
2023/09/29 00:58:18;;;;;;;5.90;3.85;;;;;;;13.91;100.00;97503.09;5006239;28;20041;-63
2023/09/29 01:00:45;;;;;;;7.97;4.72;;;;;;;13.99;100.00;97509.91;5005858;28;20220;-63
2023/09/29 01:03:15;;;;;;;8.82;3.55;;;;;;;14.04;100.00;97507.19;5005934;28;20049;-64
2023/09/29 01:05:45;;;;;;;8.38;4.25;;;;;;;14.10;100.00;97502.56;5004979;28;20613;-63
2023/09/29 01:08:15;;;;;;;8.90;4.00;;;;;;;14.21;100.00;97509.66;5006186;28;20042;-64
2023/09/29 01:10:42;;;;;;;7.35;3.95;;;;;;;14.27;100.00;97505.81;5005272;28;20762;-63
2023/09/29 01:13:09;;;;;;;9.05;4.10;;;;;;;14.23;100.00;97501.22;5003884;28;20038;-63
2023/09/29 01:15:37;;;;;;;7.72;4.05;;;;;;;14.17;100.00;97497.66;5004847;28;20041;-63
2023/09/29 01:18:04;;;;;;;6.07;3.60;;;;;;;14.07;100.00;97497.69;5005904;28;20042;-63
2023/09/29 01:20:31;;;;;;;9.82;3.67;;;;;;;13.99;100.00;97499.00;5005133;28;20794;-63
2023/09/29 01:23:03;;;;;;;6.97;3.63;;;;;;;13.96;100.00;97499.56;4987876;28;20045;-64
2023/09/29 01:25:30;;;;;;;8.43;4.28;;;;;;;13.91;100.00;97497.66;4994892;28;22344;-63
2023/09/29 01:27:57;;;;;;;7.30;4.28;;;;;;;13.91;100.00;97505.81;5016361;28;20030;-63
2023/09/29 01:30:27;;;;;;;7.25;3.92;;;;;;;13.85;100.00;97504.16;5004725;28;20061;-63
2023/09/29 01:32:57;;;;;;;5.75;3.72;;;;;;;13.87;100.00;97499.28;5009038;28;20158;-63
2023/09/29 01:35:24;;;;;;;7.95;4.20;;;;;;;13.93;100.00;97495.47;5005410;28;20081;-63
2023/09/29 01:37:55;;;;;;;6.47;3.97;;;;;;;14.04;100.00;97493.56;5004092;28;20046;-63
2023/09/29 01:40:22;;;;;;;6.53;3.80;;;;;;;14.08;100.00;97494.66;4991298;28;20434;-63
2023/09/29 01:42:51;;;;;;;6.47;3.65;;;;;;;14.07;100.00;97495.75;4987867;28;20137;-63
2023/09/29 01:45:19;;;;;;;6.57;3.88;;;;;;;14.12;100.00;97495.75;4990603;28;20118;-63
2023/09/29 01:47:47;;;;;;;7.57;3.90;;;;;;;14.25;100.00;97494.41;5004899;28;20062;-63
2023/09/29 01:50:19;;;;;;;6.03;3.80;;;;;;;14.31;100.00;97489.78;5004183;28;20038;-64
2023/09/29 01:52:48;;;;;;;5.97;3.90;;;;;;;14.37;100.00;97498.75;4986060;28;20092;-63
2023/09/29 01:55:16;;;;;;;6.25;3.75;;;;;;;14.42;100.00;97493.31;5004601;28;20044;-63
2023/09/29 01:57:43;;;;;;;5.90;3.40;;;;;;;14.43;100.00;97490.31;5002821;28;20072;-63
2023/09/29 02:00:14;;;;;;;8.63;4.35;;;;;;;14.44;100.00;97488.38;4987301;28;20129;-63
2023/09/29 02:02:43;;;;;;;7.70;3.88;;;;;;;14.45;100.00;97481.88;5000195;28;20571;-63
2023/09/29 02:05:11;;;;;;;7.25;3.67;;;;;;;14.50;100.00;97491.91;5003800;28;20050;-63
2023/09/29 02:07:39;;;;;;;13.35;6.05;;;;;;;14.48;100.00;97483.22;5003296;28;20552;-63
2023/09/29 02:10:09;;;;;;;8.52;3.75;;;;;;;14.47;100.00;97487.00;5000083;28;20104;-64
2023/09/29 02:12:46;;;;;;;6.97;4.10;;;;;;;14.52;100.00;97484.31;4985253;28;20038;-63
2023/09/29 02:15:15;;;;;;;6.35;3.70;;;;;;;14.59;100.00;97484.81;4986559;28;20045;-64
2023/09/29 02:17:43;;;;;;;6.95;3.85;;;;;;;14.58;100.00;97477.75;4986327;28;20057;-63
2023/09/29 02:20:17;;;;;;;8.70;3.53;;;;;;;14.65;100.00;97483.72;5004825;28;20096;-63
2023/09/29 02:22:44;;;;;;;7.05;3.53;;;;;;;14.73;100.00;97485.06;4984023;28;20057;-63
2023/09/29 02:25:11;;;;;;;7.20;3.92;;;;;;;14.78;100.00;97479.63;5003214;28;20100;-63
2023/09/29 02:27:38;;;;;;;8.75;4.00;;;;;;;14.77;100.00;97479.91;4985504;28;20658;-63
2023/09/29 02:30:06;;;;;;;6.25;3.30;;;;;;;14.63;100.00;97477.72;5003097;28;20378;-63
2023/09/29 02:32:34;;;;;;;6.38;3.50;;;;;;;14.63;100.00;97479.66;5002446;28;20057;-63
2023/09/29 02:35:00;;;;;;;7.75;3.80;;;;;;;14.68;100.00;97487.81;4989064;28;20144;-63
2023/09/29 02:37:27;;;;;;;7.20;4.25;;;;;;;14.62;100.00;97487.00;5004295;28;20060;-63
2023/09/29 02:39:55;;;;;;;5.95;3.25;;;;;;;14.57;100.00;97485.09;4985908;28;20040;-63
2023/09/29 02:42:22;;;;;;;7.47;3.33;;;;;;;14.56;100.00;97485.38;5003723;28;20056;-63
2023/09/29 02:44:48;;;;;;;7.55;3.70;;;;;;;14.55;100.00;97478.28;5004049;28;20042;-63
2023/09/29 02:47:15;;;;;;;7.20;3.88;;;;;;;14.66;100.00;97484.53;5004116;28;20112;-63
2023/09/29 02:49:42;;;;;;;5.82;3.40;;;;;;;14.65;100.00;97478.28;5003685;28;20034;-63
2023/09/29 02:52:09;;;;;;;6.28;3.42;;;;;;;14.73;100.00;97481.50;5004158;28;20046;-63
2023/09/29 02:54:35;;;;;;;7.40;3.65;;;;;;;14.74;100.00;97483.16;5002653;28;20093;-63
2023/09/29 02:57:02;;;;;;;6.65;3.60;;;;;;;14.77;100.00;97482.63;5003644;28;20049;-63
2023/09/29 02:59:33;;;;;;;6.88;3.25;;;;;;;14.83;100.00;97478.81;5003721;28;20125;-63
2023/09/29 03:02:01;;;;;;;6.88;3.38;;;;;;;14.79;100.00;97484.00;4999053;28;20050;-63
2023/09/29 03:04:32;;;;;;;6.20;3.58;;;;;;;14.70;100.00;97477.44;5002515;28;20076;-64
2023/09/29 03:06:59;;;;;;;6.13;3.88;;;;;;;14.72;100.00;97478.00;5004682;28;20440;-63
2023/09/29 03:09:29;;;;;;;7.82;4.43;;;;;;;14.80;100.00;97479.34;5003047;28;20630;-63
2023/09/29 03:11:56;;;;;;;7.15;3.88;;;;;;;14.86;100.00;97477.44;5005369;28;20056;-63
2023/09/29 03:14:22;;;;;;;6.43;3.72;;;;;;;14.85;100.00;97473.88;5002952;28;20042;-63
2023/09/29 03:16:51;;;;;;;6.53;3.72;;;;;;;14.89;100.00;97476.88;5003794;28;20054;-63
2023/09/29 03:19:19;;;;;;;6.68;3.40;;;;;;;14.93;100.00;97477.97;5004193;28;20128;-63
2023/09/29 03:21:45;;;;;;;5.68;3.28;;;;;;;15.01;100.00;97485.56;5004364;28;20057;-63
2023/09/29 03:24:13;;;;;;;7.00;3.53;;;;;;;15.01;100.00;97487.47;5003627;28;20042;-63
2023/09/29 03:26:40;;;;;;;8.60;3.53;;;;;;;15.04;100.00;97489.66;4999428;28;20045;-63
2023/09/29 03:29:06;;;;;;;6.07;3.17;;;;;;;15.06;100.00;97493.72;5003754;28;20673;-63
2023/09/29 03:31:33;;;;;;;4.90;3.10;;;;;;;15.00;100.00;97494.03;5003310;28;20042;-63
2023/09/29 03:34:01;;;;;;;6.07;3.45;;;;;;;15.05;100.00;97499.44;5000064;28;20527;-63
2023/09/29 03:36:30;;;;;;;5.10;2.90;;;;;;;15.05;100.00;97513.09;5003654;28;20038;-63
2023/09/29 03:38:59;;;;;;;7.07;3.28;;;;;;;15.12;100.00;97505.44;5003326;28;20038;-63
2023/09/29 03:41:25;;;;;;;8.20;3.28;;;;;;;15.01;100.00;97501.94;5003812;28;20046;-63
2023/09/29 03:43:52;;;;;;;7.13;4.00;;;;;;;14.90;100.00;97506.59;5004866;28;21399;-63
2023/09/29 03:46:19;;;;;;;5.68;3.30;;;;;;;14.75;100.00;97499.25;5003503;28;20591;-63
2023/09/29 03:48:47;;;;;;;5.68;3.55;;;;;;;14.62;100.00;97500.63;5003886;28;20518;-63
2023/09/29 03:51:21;;;;;;;5.55;3.78;;;;;;;14.63;100.00;97496.00;5003774;28;20052;-63
2023/09/29 03:53:48;;;;;;;6.85;3.83;;;;;;;14.67;100.00;97500.59;5001924;28;20045;-63
2023/09/29 03:56:16;;;;;;;6.60;3.10;;;;;;;14.77;100.00;97498.97;5003835;28;20136;-63
2023/09/29 03:58:44;;;;;;;5.53;3.42;;;;;;;14.94;100.00;97496.78;5003416;28;20432;-63
2023/09/29 04:01:10;;;;;;;4.90;3.13;;;;;;;15.07;100.00;97499.97;5004038;28;20034;-63
2023/09/29 04:03:38;;;;;;;6.50;3.33;;;;;;;15.11;100.00;97506.50;5002485;28;20038;-64
2023/09/29 04:06:04;;;;;;;8.02;3.65;;;;;;;14.99;100.00;97497.81;5003766;28;20119;-63
2023/09/29 04:08:31;;;;;;;7.85;3.92;;;;;;;14.85;100.00;97506.59;5003297;28;20038;-63
2023/09/29 04:10:58;;;;;;;6.30;3.85;;;;;;;14.76;100.00;97500.03;5000810;28;20136;-63
2023/09/29 04:13:24;;;;;;;6.43;3.53;;;;;;;14.87;100.00;97506.31;5002490;28;20108;-63
2023/09/29 04:15:51;;;;;;;7.20;3.80;;;;;;;14.94;100.00;97512.31;5002865;28;20049;-63
2023/09/29 04:18:18;;;;;;;5.10;3.10;;;;;;;14.85;100.00;97512.03;5001473;28;20052;-63
2023/09/29 04:20:44;;;;;;;6.50;3.10;;;;;;;14.84;100.00;97507.69;5002741;28;20113;-63
2023/09/29 04:23:11;;;;;;;6.30;3.55;;;;;;;14.84;100.00;97515.88;5003351;28;20045;-63
2023/09/29 04:25:37;;;;;;;7.57;3.53;;;;;;;14.93;100.00;97510.69;4999869;28;20060;-63
2023/09/29 04:28:04;;;;;;;9.35;4.13;;;;;;;14.98;100.00;97509.81;5003040;28;20569;-63
2023/09/29 04:30:30;;;;;;;5.20;3.20;;;;;;;15.02;100.00;97524.53;5005073;28;20527;-63
2023/09/29 04:32:57;;;;;;;5.55;3.28;;;;;;;15.10;100.00;97513.06;5004694;28;20042;-63
2023/09/29 04:35:24;;;;;;;6.25;3.50;;;;;;;15.16;100.00;97513.88;5006220;28;20104;-63
2023/09/29 04:37:50;;;;;;;5.75;3.30;;;;;;;15.17;100.00;97504.59;5005992;28;20034;-63
2023/09/29 04:40:17;;;;;;;5.65;3.35;;;;;;;15.18;100.00;97507.03;5005876;28;20031;-63
2023/09/29 04:42:43;;;;;;;8.00;3.03;;;;;;;15.10;100.00;97499.44;5007318;28;20037;-63
2023/09/29 04:45:10;;;;;;;7.55;3.80;;;;;;;15.09;100.00;97497.81;5006579;28;20459;-63
2023/09/29 04:47:38;;;;;;;6.10;3.50;;;;;;;15.21;100.00;97502.94;5005501;28;20721;-64
2023/09/29 04:50:10;;;;;;;11.18;3.50;;;;;;;15.32;100.00;97504.53;5006458;28;20038;-63
2023/09/29 04:52:37;;;;;;;7.45;3.30;;;;;;;15.51;99.79;97503.88;5005392;28;20115;-63
2023/09/29 04:55:03;;;;;;;5.82;3.30;;;;;;;15.59;98.89;97506.03;5006413;28;20037;-63
2023/09/29 04:57:30;;;;;;;7.85;3.35;;;;;;;15.57;99.21;97510.13;5006422;28;20056;-64
2023/09/29 04:59:56;;;;;;;5.72;3.25;;;;;;;15.41;100.00;97515.66;5005396;28;20049;-63
2023/09/29 05:02:24;;;;;;;7.10;3.38;;;;;;;15.11;100.00;97514.69;5005162;28;20052;-63
2023/09/29 05:04:51;;;;;;;6.35;3.63;;;;;;;15.08;100.00;97512.53;5005482;28;20042;-63
2023/09/29 05:07:17;;;;;;;6.50;3.53;;;;;;;15.17;100.00;97515.50;5004130;28;20050;-63
2023/09/29 05:09:45;;;;;;;7.07;3.60;;;;;;;15.30;100.00;97514.88;5003406;28;20073;-63
2023/09/29 05:12:12;;;;;;;7.05;3.15;;;;;;;15.40;100.00;97518.69;5003735;28;20046;-63
2023/09/29 05:14:40;;;;;;;4.90;3.13;;;;;;;15.44;100.00;97520.56;5002761;28;20045;-63
2023/09/29 05:17:07;;;;;;;5.90;3.15;;;;;;;15.53;100.00;97528.16;5005635;28;20671;-63
2023/09/29 05:19:34;;;;;;;5.93;3.42;;;;;;;15.47;100.00;97525.47;5003253;28;20513;-63
2023/09/29 05:22:00;;;;;;;6.80;3.67;;;;;;;15.46;100.00;97525.75;5003850;28;20042;-62
2023/09/29 05:24:27;;;;;;;5.38;3.45;;;;;;;15.52;100.00;97532.78;5003592;28;20052;-63
2023/09/29 05:26:53;;;;;;;6.80;3.17;;;;;;;15.60;100.00;97524.03;5003124;28;21672;-62
2023/09/29 05:29:20;;;;;;;7.20;3.17;;;;;;;15.71;100.00;97537.63;5003820;28;20046;-62
2023/09/29 05:31:47;;;;;;;8.18;3.20;;;;;;;15.74;100.00;97529.69;5002731;28;20045;-62
2023/09/29 05:34:13;;;;;;;6.20;3.42;;;;;;;15.73;100.00;97532.69;5002944;28;20060;-61
2023/09/29 05:36:40;;;;;;;6.03;3.22;;;;;;;15.70;100.00;97538.72;5000541;28;20069;-62
2023/09/29 05:39:06;;;;;;;7.60;4.30;;;;;;;15.77;99.04;97527.50;5001436;28;20045;-62
2023/09/29 05:41:33;;;;;;;6.07;3.05;;;;;;;15.74;99.01;97526.16;5002878;28;20068;-62
2023/09/29 05:44:00;;;;;;;10.05;3.95;;;;;;;15.69;99.31;97532.44;4998062;28;20056;-62
2023/09/29 05:46:27;;;;;;;9.60;4.00;;;;;;;15.71;99.34;97537.63;5003546;28;20050;-61
2023/09/29 05:48:54;;;;;;;5.85;3.28;;;;;;;15.73;99.36;97529.97;5003533;28;20285;-61
2023/09/29 05:51:21;;;;;;;8.60;4.47;;;;;;;15.66;100.00;97541.19;5002616;28;20113;-62
2023/09/29 05:53:47;;;;;;;10.00;3.95;;;;;;;15.60;100.00;97539.59;5001171;28;20505;-61
2023/09/29 05:56:15;;;;;;;6.25;3.85;;;;;;;15.60;100.00;97539.59;5003684;28;20081;-61
2023/09/29 05:58:42;;;;;;;7.47;3.75;;;;;;;15.57;100.00;97540.16;5003020;28;20410;-61
2023/09/29 06:01:10;;;;;;;6.95;3.63;;;;;;;15.55;100.00;97543.16;4988077;28;20501;-61
2023/09/29 06:03:37;;;;;;;6.00;3.40;;;;;;;15.63;100.00;97538.22;5004212;28;20513;-61
2023/09/29 06:06:04;;;;;;;7.97;3.30;;;;;;;15.71;99.89;97540.34;5005520;28;20072;-61
2023/09/29 06:08:31;;;;;;;10.80;3.42;;;;;;;15.79;98.66;97537.03;4987675;28;20045;-62
2023/09/29 06:11:17;;;;;;;4.88;2.75;;;;;;;15.81;98.63;97539.50;5005040;28;20038;-61
2023/09/29 06:13:44;;;;;;;7.22;3.13;;;;;;;15.80;99.17;97549.59;5001965;28;20041;-62
2023/09/29 06:16:11;;;;;;;6.15;3.40;;;;;;;15.81;99.50;97558.59;5004745;28;20092;-62
2023/09/29 06:18:37;;;;;;;5.05;3.08;;;;;;;15.86;98.96;97561.28;5002416;28;20057;-61
2023/09/29 06:21:04;;;;;;;5.30;3.00;;;;;;;15.91;98.39;97558.53;5000636;28;20101;-61
2023/09/29 06:23:30;;;;;;;6.55;3.22;;;;;;;16.02;97.69;97553.03;5002089;28;20104;-61
2023/09/29 06:25:58;;;;;;;6.82;2.90;;;;;;;16.11;97.23;97556.81;5002641;28;20173;-61
2023/09/29 06:28:25;;;;;;;8.20;3.10;;;;;;;16.11;96.89;97557.59;5002480;28;20599;-62
2023/09/29 06:30:53;;;;;;;5.50;3.35;;;;;;;16.09;97.02;97561.72;5002265;28;20045;-61
2023/09/29 06:33:20;;;;;;;6.45;3.08;;;;;;;16.16;96.85;97573.16;5002463;28;20046;-61
2023/09/29 06:35:47;;;;;;;7.97;3.15;;;;;;;16.21;96.49;97562.19;5002255;28;20053;-61
2023/09/29 06:38:15;;;;;;;5.40;2.95;;;;;;;16.27;96.72;97564.88;5002089;28;20689;-61
2023/09/29 06:40:43;;;;;;;5.72;3.13;;;;;;;16.28;96.54;97569.25;5001081;28;20042;-62
2023/09/29 06:43:10;;;;;;;6.72;3.25;;;;;;;16.31;96.87;97564.03;5004911;28;20421;-62
2023/09/29 06:45:37;;;;;;;5.95;2.97;;;;;;;16.40;97.02;97571.63;5003751;28;20057;-62
2023/09/29 06:48:23;;;;;;;5.75;2.45;;;;;;;16.51;96.17;97573.97;5003790;28;20120;-61
2023/09/29 06:50:51;;;;;;;6.90;3.30;;;;;;;16.59;95.67;97569.00;5003965;28;20115;-61
2023/09/29 06:53:17;;;;;;;7.65;3.60;;;;;;;16.68;95.48;97570.00;5004047;28;20120;-61
2023/09/29 06:55:44;;;;;;;6.07;2.95;;;;;;;16.87;94.57;97580.22;5004085;28;20042;-62
2023/09/29 06:58:10;;;;;;;7.88;3.42;;;;;;;16.93;94.58;97579.09;5004430;28;20116;-61
2023/09/29 07:00:37;;;;;;;6.15;2.90;;;;;;;17.00;93.88;97567.81;5003404;28;20046;-61
2023/09/29 07:03:04;;;;;;;7.32;2.88;;;;;;;17.08;94.12;97577.31;5003663;28;20045;-61
2023/09/29 07:05:30;;;;;;;6.43;3.38;;;;;;;17.10;93.78;97572.38;5003448;28;20037;-61
2023/09/29 07:07:57;;;;;;;5.25;3.03;;;;;;;17.09;93.54;97566.09;5003859;28;20519;-62
2023/09/29 07:10:23;;;;;;;5.75;2.97;;;;;;;17.11;93.08;97569.38;5002004;28;20044;-61
2023/09/29 07:12:50;;;;;;;5.65;3.28;;;;;;;17.15;93.35;97572.31;5001138;28;20037;-61
2023/09/29 07:15:16;;;;;;;9.00;3.15;;;;;;;17.16;93.57;97573.94;5001980;28;20048;-61
2023/09/29 07:17:43;;;;;;;6.07;3.22;;;;;;;17.20;93.54;97571.44;5002553;28;20140;-61
2023/09/29 07:20:11;;;;;;;6.60;2.80;;;;;;;17.22;93.32;97572.81;4972969;28;20511;-62
2023/09/29 07:22:38;;;;;;;4.88;2.88;;;;;;;17.25;92.96;97569.47;4982687;28;20045;-61
2023/09/29 07:25:05;;;;;;;6.15;2.95;;;;;;;17.25;92.64;97571.41;4985717;28;20049;-61
2023/09/29 07:27:32;;;;;;;5.13;2.70;;;;;;;17.30;92.15;97574.06;5002029;28;20060;-61
2023/09/29 07:29:58;;;;;;;9.80;2.85;;;;;;;17.37;91.75;97565.50;5000897;28;20551;-61
2023/09/29 07:32:26;;;;;;;7.07;3.30;;;;;;;17.49;91.02;97573.28;5001349;28;20054;-61
2023/09/29 07:34:52;;;;;;;7.32;3.03;;;;;;;17.59;90.41;97577.84;4999885;28;20552;-62
2023/09/29 07:37:19;;;;;;;19.33;4.38;;;;;;;17.77;88.52;97579.78;5003819;28;20054;-62
2023/09/29 07:39:46;;;;;;;9.38;3.20;;;;;;;17.88;88.11;97577.72;5003624;28;20041;-62
2023/09/29 07:42:12;;;;;;;6.32;3.15;;;;;;;18.07;86.82;97582.41;5000911;28;20026;-61
2023/09/29 07:44:39;;;;;;;5.85;2.97;;;;;;;18.23;86.30;97584.94;5000401;28;20054;-61
2023/09/29 07:47:08;;;;;;;5.80;3.03;;;;;;;18.35;86.36;97585.28;4998169;28;20056;-62
2023/09/29 07:49:40;;;;;;;7.05;3.50;;;;;;;18.22;86.94;97588.78;5001716;28;20057;-61
2023/09/29 07:52:09;;;;;;;6.57;3.17;;;;;;;18.24;85.81;97586.59;5001333;28;20034;-62
2023/09/29 07:54:36;;;;;;;5.43;3.03;;;;;;;18.31;86.51;97595.22;5001049;28;20049;-62
2023/09/29 07:57:03;;;;;;;6.55;3.20;;;;;;;18.37;85.60;97587.75;4997078;28;20109;-61
2023/09/29 07:59:29;;;;;;;6.53;3.00;;;;;;;18.43;86.91;97584.63;5001528;28;20073;-61
2023/09/29 08:01:58;;;;;;;6.20;3.38;;;;;;;18.52;86.77;97578.47;5006092;28;20053;-61
2023/09/29 08:04:25;;;;;;;5.63;3.40;;;;;;;18.56;86.67;97580.31;5004726;28;20042;-61
2023/09/29 08:06:52;;;;;;;5.93;3.00;;;;;;;18.63;86.74;97570.88;5005144;28;20037;-61
2023/09/29 08:09:19;;;;;;;9.93;4.63;;;;;;;18.67;86.92;97575.47;5005377;28;20040;-61
2023/09/29 08:11:46;;;;;;;5.97;3.20;;;;;;;18.87;84.38;97578.16;5004906;28;20034;-61
2023/09/29 08:14:13;;;;;;;6.80;3.45;;;;;;;19.06;84.99;97581.66;5005530;28;20129;-62
2023/09/29 08:16:40;;;;;;;7.32;3.10;;;;;;;19.32;84.09;97578.44;5006590;28;20681;-61
2023/09/29 08:19:07;;;;;;;6.55;3.63;;;;;;;19.68;82.44;97579.63;5003842;28;20513;-61
2023/09/29 08:21:34;;;;;;;5.85;2.80;;;;;;;19.92;80.44;97577.78;5004609;28;20049;-61
2023/09/29 08:24:06;;;;;;;7.13;3.13;;;;;;;20.14;79.46;97577.03;5004323;28;20045;-61
2023/09/29 08:26:34;;;;;;;6.32;2.78;;;;;;;20.44;78.92;97576.63;4984631;28;20137;-61
2023/09/29 08:29:01;;;;;;;8.00;2.90;;;;;;;20.70;76.32;97576.81;5003767;28;20500;-61
2023/09/29 08:31:28;;;;;;;6.30;3.05;;;;;;;20.89;75.31;97570.31;5004560;28;20042;-61
2023/09/29 08:33:54;;;;;;;6.70;3.30;;;;;;;21.11;73.34;97566.69;5003568;28;20068;-61
2023/09/29 08:36:21;;;;;;;5.32;2.67;;;;;;;21.37;71.96;97562.44;5004946;28;20100;-61
2023/09/29 08:38:48;;;;;;;5.43;2.67;;;;;;;21.56;69.82;97562.16;5004294;28;20142;-61
2023/09/29 08:41:16;;;;;;;6.00;2.50;;;;;;;21.85;68.83;97569.03;5005261;28;20127;-61
2023/09/29 08:43:43;;;;;;;7.32;2.60;;;;;;;22.25;67.81;97573.63;5004286;28;20045;-61
2023/09/29 08:46:33;;;;;;;5.72;3.50;;;;;;;22.33;66.88;97572.00;5004253;28;20049;-61
2023/09/29 08:49:03;;;;;;;4.50;2.60;;;;;;;22.22;65.54;97583.38;5004525;28;20493;-61
2023/09/29 08:51:32;;;;;;;6.25;2.50;;;;;;;22.15;66.98;97587.75;5004371;28;20061;-61
2023/09/29 08:54:02;;;;;;;5.35;2.85;;;;;;;21.99;67.66;97579.13;5004153;28;20037;-61
2023/09/29 08:56:30;;;;;;;5.00;2.95;;;;;;;21.83;67.88;97577.63;5004426;28;20050;-61
2023/09/29 08:58:59;;;;;;;5.65;2.80;;;;;;;21.83;68.60;97574.88;5004149;28;20045;-61
2023/09/29 09:01:26;;;;;;;5.78;2.75;;;;;;;21.79;68.43;97573.94;5004077;28;20125;-61
2023/09/29 09:03:52;;;;;;;7.30;2.65;;;;;;;21.78;69.40;97577.00;5003429;28;20037;-61
2023/09/29 09:06:24;;;;;;;6.45;2.60;;;;;;;21.76;68.91;97568.22;5004716;28;20497;-61
2023/09/29 09:08:53;;;;;;;6.00;2.70;;;;;;;21.75;68.89;97564.69;5003653;28;20119;-61
2023/09/29 09:11:21;;;;;;;4.78;2.47;;;;;;;21.69;69.18;97571.44;5004526;28;20053;-61
2023/09/29 09:13:58;;;;;;;6.63;2.40;;;;;;;21.72;69.25;97576.31;5000703;28;20144;-61
2023/09/29 09:16:26;;;;;;;6.55;2.55;;;;;;;21.77;68.88;97578.94;5003633;28;20042;-61
2023/09/29 09:18:53;;;;;;;6.82;2.85;;;;;;;21.82;69.05;97577.97;5005967;28;20101;-61
2023/09/29 09:21:32;;;;;;;4.57;2.28;;;;;;;21.93;68.04;97576.53;5003356;28;20073;-61
2023/09/29 09:23:58;;;;;;;5.43;2.50;;;;;;;22.18;67.65;97581.56;5004060;28;20502;-62
2023/09/29 09:26:28;;;;;;;6.03;2.28;;;;;;;22.42;66.35;97574.75;5004292;28;20596;-61
2023/09/29 09:28:54;;;;;;;5.25;2.25;;;;;;;22.62;64.44;97578.03;5008110;28;20194;-61
2023/09/29 09:31:21;;;;;;;3.60;2.00;;;;;;;22.66;64.40;97574.28;5004451;28;20398;-61
2023/09/29 09:33:51;;;;;;;4.70;2.08;;;;;;;22.89;61.06;97576.84;5001402;28;20058;-61
2023/09/29 09:36:18;;;;;;;4.00;1.92;;;;;;;23.00;60.19;97572.56;5004127;28;20060;-61
2023/09/29 09:38:47;;;;;;;4.85;1.90;;;;;;;23.13;58.21;97570.75;5003508;28;20398;-61
2023/09/29 09:41:16;;;;;;;3.65;1.88;;;;;;;23.23;57.61;97577.88;5008042;28;20042;-61
2023/09/29 09:43:43;;;;;;;4.35;2.22;;;;;;;23.41;56.88;97577.00;5003628;28;20737;-61
2023/09/29 09:46:12;;;;;;;4.63;2.10;;;;;;;23.56;56.49;97586.69;5003963;28;20512;-61
2023/09/29 09:48:52;;;;;;;4.65;2.50;;;;;;;23.60;56.50;97580.16;5002897;28;20056;-61
2023/09/29 09:51:44;;;;;;;7.10;2.45;;;;;;;23.59;56.41;97586.03;5003134;28;20124;-61
2023/09/29 09:54:16;;;;;;;7.15;2.38;;;;;;;23.56;57.14;97579.22;5005574;28;20073;-61
2023/09/29 09:56:55;;;;;;;5.22;2.20;;;;;;;23.64;56.45;97570.06;5003268;28;20054;-61
2023/09/29 09:59:24;;;;;;;4.53;1.98;;;;;;;23.78;57.58;97572.56;5003480;28;20659;-61
2023/09/29 10:01:51;;;;;;;6.22;2.53;;;;;;;23.88;57.45;97568.59;5001194;28;20034;-62
2023/09/29 10:04:19;;;;;;;4.40;2.40;;;;;;;23.97;56.97;97576.03;5003035;28;20052;-61
2023/09/29 10:06:46;;;;;;;4.55;2.10;;;;;;;24.24;56.37;97573.91;5002990;28;20042;-61
2023/09/29 10:09:13;;;;;;;5.38;2.40;;;;;;;24.28;54.11;97578.44;5004666;28;20041;-61
2023/09/29 10:11:42;;;;;;;5.35;2.15;;;;;;;24.32;54.62;97575.78;5003138;28;20045;-61
2023/09/29 10:14:09;;;;;;;5.60;1.92;;;;;;;24.33;55.18;97569.13;5003133;28;20112;-61
2023/09/29 10:16:38;;;;;;;10.77;2.30;;;;;;;24.51;56.03;97577.28;5002924;28;20761;-61
2023/09/29 10:19:12;;;;;;;5.30;2.00;;;;;;;24.55;55.26;97562.41;5003031;28;20242;-61
2023/09/29 10:21:43;;;;;;;4.80;2.28;;;;;;;24.64;54.72;97570.63;5001405;28;20045;-62
2023/09/29 10:24:13;;;;;;;3.28;1.60;;;;;;;24.80;55.51;97569.97;5001770;28;20042;-61
2023/09/29 10:26:46;;;;;;;5.05;2.00;;;;;;;24.94;55.19;97570.50;5002684;28;20717;-62
2023/09/29 10:29:20;;;;;;;4.63;2.15;;;;;;;24.98;54.05;97567.06;5003172;28;20059;-62
2023/09/29 10:31:49;;;;;;;4.85;2.35;;;;;;;24.99;54.83;97565.91;5001793;28;20045;-62
2023/09/29 10:34:21;;;;;;;4.15;2.00;;;;;;;25.22;54.37;97555.19;5002370;28;20057;-62
2023/09/29 10:36:55;;;;;;;6.07;2.05;;;;;;;25.28;52.99;97561.34;5002256;28;20041;-62
2023/09/29 10:39:29;;;;;;;5.72;2.40;;;;;;;25.30;54.48;97562.59;5000504;28;20077;-62
2023/09/29 10:42:04;;;;;;;5.63;2.03;;;;;;;25.30;54.53;97559.81;5001280;28;20046;-62
2023/09/29 10:44:31;;;;;;;5.28;2.40;;;;;;;25.43;54.34;97557.84;5001991;28;20132;-62
2023/09/29 10:46:57;;;;;;;4.70;1.88;;;;;;;25.53;53.33;97553.81;5002040;28;20540;-62
2023/09/29 10:49:32;;;;;;;4.38;2.00;;;;;;;25.58;53.29;97541.72;5002720;28;20041;-62
2023/09/29 10:51:58;;;;;;;5.47;2.38;;;;;;;25.77;52.43;97548.63;5001478;28;20143;-62
2023/09/29 10:54:25;;;;;;;5.82;2.00;;;;;;;25.95;52.11;97544.41;5002277;28;20048;-62
2023/09/29 10:56:52;;;;;;;4.63;2.10;;;;;;;26.09;51.51;97544.03;5002018;28;20529;-62
2023/09/29 10:59:18;;;;;;;4.55;1.75;;;;;;;26.23;52.07;97546.44;5002158;28;20069;-61
2023/09/29 11:01:46;;;;;;;5.07;2.17;;;;;;;26.23;52.10;97548.38;5001691;28;20041;-61
2023/09/29 11:04:13;;;;;;;5.22;2.17;;;;;;;26.30;50.96;97547.81;5002717;28;20045;-61
2023/09/29 11:06:46;;;;;;;8.73;3.20;;;;;;;26.27;50.26;97554.09;5003689;28;20416;-61
2023/09/29 11:09:19;;;;;;;4.68;1.88;;;;;;;26.41;50.43;97543.38;5002648;28;20038;-61
2023/09/29 11:11:46;;;;;;;5.55;2.40;;;;;;;26.61;51.24;97540.78;5001723;28;20046;-61
2023/09/29 11:14:13;;;;;;;5.20;2.05;;;;;;;26.60;49.43;97542.72;5002218;28;20042;-62
2023/09/29 11:16:40;;;;;;;5.45;1.92;;;;;;;26.54;50.03;97535.81;5001767;28;20096;-62
2023/09/29 11:19:12;;;;;;;5.15;1.73;;;;;;;26.67;50.08;97544.06;5001761;28;20049;-62
2023/09/29 11:21:40;;;;;;;4.65;2.00;;;;;;;26.69;50.16;97537.03;5001021;28;20049;-62
2023/09/29 11:24:11;;;;;;;3.85;2.00;;;;;;;26.79;49.77;97537.66;4984048;28;20716;-62
2023/09/29 11:26:43;;;;;;;5.95;2.28;;;;;;;26.80;49.73;97542.88;5002098;28;20064;-62
2023/09/29 11:29:28;;;;;;;6.47;2.00;;;;;;;26.38;50.23;97541.31;5003114;28;20073;-62
2023/09/29 11:31:55;;;;;;;4.82;2.28;;;;;;;26.24;51.42;97545.28;5001364;28;20034;-62
2023/09/29 11:34:22;;;;;;;4.53;2.20;;;;;;;26.03;51.54;97534.38;5002982;28;20077;-61